createdAt,value
2018-01-26T00:00:09.972Z,0
2018-01-26T00:01:18.928Z,0
2018-01-26T00:02:28.167Z,0
2018-01-26T00:03:36.866Z,0
2018-01-26T00:04:45.842Z,0
2018-01-26T00:05:55.047Z,0
2018-01-26T00:07:04.266Z,0
2018-01-26T00:08:13.739Z,0
2018-01-26T00:09:22.448Z,0
2018-01-26T00:10:31.130Z,0
2018-01-26T00:11:39.815Z,0
2018-01-26T00:12:48.502Z,0
2018-01-26T00:13:57.494Z,0
2018-01-26T00:15:06.728Z,0
2018-01-26T00:16:16.230Z,0
2018-01-26T00:17:25.168Z,0
2018-01-26T00:18:33.850Z,0
2018-01-26T00:19:42.555Z,0
2018-01-26T00:20:51.490Z,0
2018-01-26T00:22:00.173Z,0
2018-01-26T00:23:09.134Z,0
2018-01-26T00:24:18.063Z,0
2018-01-26T00:25:26.755Z,0
2018-01-26T00:26:35.945Z,0
2018-01-26T00:27:44.637Z,0
2018-01-26T00:28:53.594Z,0
2018-01-26T00:30:02.818Z,0
2018-01-26T00:31:12.027Z,0
2018-01-26T00:32:20.988Z,0
2018-01-26T00:33:30.187Z,0
2018-01-26T00:34:39.420Z,0
2018-01-26T00:35:48.657Z,0
2018-01-26T00:36:58.441Z,0
2018-01-26T00:38:07.424Z,0
2018-01-26T00:39:16.399Z,0
2018-01-26T00:40:25.630Z,0
2018-01-26T00:41:35.123Z,0
2018-01-26T00:42:44.329Z,0
2018-01-26T00:43:53.263Z,0
2018-01-26T00:45:02.215Z,0
2018-01-26T00:46:11.217Z,0
2018-01-26T00:47:20.161Z,0
2018-01-26T00:48:28.853Z,0
2018-01-26T00:49:37.596Z,0
2018-01-26T00:50:46.800Z,0
2018-01-26T00:51:55.517Z,0
2018-01-26T00:53:04.231Z,0
2018-01-26T00:54:12.932Z,0
2018-01-26T00:55:22.156Z,0
2018-01-26T00:56:31.368Z,0
2018-01-26T00:57:40.073Z,0
2018-01-26T00:58:48.844Z,0
2018-01-26T00:59:57.541Z,0
2018-01-26T01:01:06.237Z,0
2018-01-26T01:02:15.977Z,0
2018-01-26T01:03:25.212Z,0
2018-01-26T01:04:34.189Z,0
2018-01-26T01:05:43.408Z,0
2018-01-26T01:06:52.355Z,0
2018-01-26T01:08:01.069Z,0
2018-01-26T01:09:10.607Z,0
2018-01-26T01:10:19.832Z,0
2018-01-26T01:11:28.802Z,0
2018-01-26T01:12:38.532Z,0
2018-01-26T01:13:47.529Z,0
2018-01-26T01:14:56.212Z,0
2018-01-26T01:16:05.152Z,0
2018-01-26T01:17:14.093Z,0
2018-01-26T01:18:23.330Z,0
2018-01-26T01:19:32.287Z,0
2018-01-26T01:20:41.263Z,0
2018-01-26T01:21:50.280Z,0
2018-01-26T01:22:58.984Z,0
2018-01-26T01:24:07.664Z,0
2018-01-26T01:25:16.859Z,0
2018-01-26T01:26:25.811Z,0
2018-01-26T01:27:34.767Z,0
2018-01-26T01:28:44.249Z,0
2018-01-26T01:29:53.453Z,0
2018-01-26T01:31:02.437Z,0
2018-01-26T01:32:11.385Z,0
2018-01-26T01:33:20.104Z,0
2018-01-26T01:34:29.056Z,0
2018-01-26T01:35:38.263Z,0
2018-01-26T01:36:47.231Z,0
2018-01-26T01:37:55.913Z,0
2018-01-26T01:39:05.134Z,0
2018-01-26T01:40:14.327Z,0
2018-01-26T01:41:23.044Z,0
2018-01-26T01:42:32.006Z,0
2018-01-26T01:43:41.485Z,0
2018-01-26T01:44:50.442Z,0
2018-01-26T01:45:59.903Z,0
2018-01-26T01:47:08.848Z,0
2018-01-26T01:48:18.069Z,0
2018-01-26T01:49:26.759Z,0
2018-01-26T01:50:35.706Z,0
2018-01-26T01:51:44.658Z,0
2018-01-26T01:52:53.875Z,0
2018-01-26T01:54:02.575Z,0
2018-01-26T01:55:11.278Z,0
2018-01-26T01:56:19.950Z,0
2018-01-26T01:57:28.638Z,0
2018-01-26T01:58:37.844Z,0
2018-01-26T01:59:46.792Z,0
2018-01-26T02:00:55.987Z,0
2018-01-26T02:02:05.188Z,0
2018-01-26T02:03:14.140Z,0
2018-01-26T02:04:23.086Z,0
2018-01-26T02:05:32.338Z,0
2018-01-26T02:06:41.279Z,0
2018-01-26T02:07:50.313Z,0
2018-01-26T02:09:00.057Z,0
2018-01-26T02:10:09.269Z,0
2018-01-26T02:11:18.217Z,0
2018-01-26T02:12:26.904Z,0
2018-01-26T02:13:35.590Z,0
2018-01-26T02:14:44.275Z,0
2018-01-26T02:15:53.234Z,0
2018-01-26T02:17:02.179Z,0
2018-01-26T02:18:11.698Z,0
2018-01-26T02:19:20.376Z,0
2018-01-26T02:20:29.315Z,0
2018-01-26T02:21:38.003Z,0
2018-01-26T02:22:47.213Z,0
2018-01-26T02:23:56.446Z,0
2018-01-26T02:25:05.129Z,0
2018-01-26T02:26:13.801Z,0
2018-01-26T02:27:22.998Z,0
2018-01-26T02:28:31.686Z,0
2018-01-26T02:29:40.894Z,0
2018-01-26T02:30:49.842Z,0
2018-01-26T02:31:58.804Z,0
2018-01-26T02:33:07.776Z,0
2018-01-26T02:34:16.483Z,0
2018-01-26T02:35:25.449Z,0
2018-01-26T02:36:34.395Z,0
2018-01-26T02:37:43.612Z,0
2018-01-26T02:38:53.082Z,0
2018-01-26T02:40:02.580Z,0
2018-01-26T02:41:11.804Z,0
2018-01-26T02:42:20.753Z,0
2018-01-26T02:43:29.702Z,0
2018-01-26T02:44:38.905Z,0
2018-01-26T02:45:48.387Z,0
2018-01-26T02:46:57.603Z,0
2018-01-26T02:48:07.098Z,0
2018-01-26T02:49:16.321Z,0
2018-01-26T02:50:25.555Z,0
2018-01-26T02:51:35.015Z,0
2018-01-26T02:52:43.701Z,0
2018-01-26T02:53:52.656Z,0
2018-01-26T02:55:02.115Z,0
2018-01-26T02:56:11.872Z,0
2018-01-26T02:57:21.349Z,0
2018-01-26T02:58:30.811Z,0
2018-01-26T02:59:39.763Z,0
2018-01-26T03:00:49.240Z,0
2018-01-26T03:01:58.629Z,0
2018-01-26T03:03:08.109Z,0
2018-01-26T03:04:17.568Z,0
2018-01-26T03:05:26.518Z,0
2018-01-26T03:06:35.490Z,0
2018-01-26T03:07:44.461Z,0
2018-01-26T03:08:53.403Z,0
2018-01-26T03:10:02.600Z,0
2018-01-26T03:11:11.565Z,0
2018-01-26T03:12:20.791Z,0
2018-01-26T03:13:29.987Z,0
2018-01-26T03:14:38.932Z,0
2018-01-26T03:15:47.878Z,0
2018-01-26T03:16:56.603Z,0
2018-01-26T03:18:05.562Z,0
2018-01-26T03:19:14.776Z,0
2018-01-26T03:20:23.981Z,0
2018-01-26T03:21:33.202Z,0
2018-01-26T03:22:41.893Z,0
2018-01-26T03:23:50.573Z,0
2018-01-26T03:24:59.776Z,0
2018-01-26T03:26:08.727Z,0
2018-01-26T03:27:18.381Z,0
2018-01-26T03:28:27.072Z,0
2018-01-26T03:29:36.533Z,0
2018-01-26T03:30:45.758Z,0
2018-01-26T03:31:54.432Z,0
2018-01-26T03:33:03.388Z,0
2018-01-26T03:34:12.595Z,0
2018-01-26T03:35:21.562Z,0
2018-01-26T03:36:30.529Z,0
2018-01-26T03:37:39.498Z,0
2018-01-26T03:38:48.191Z,0
2018-01-26T03:39:57.132Z,0
2018-01-26T03:41:06.330Z,0
2018-01-26T03:42:15.277Z,0
2018-01-26T03:43:24.738Z,0
2018-01-26T03:44:33.423Z,0
2018-01-26T03:45:42.106Z,0
2018-01-26T03:46:51.050Z,0
2018-01-26T03:48:00.235Z,0
2018-01-26T03:49:09.178Z,0
2018-01-26T03:50:18.403Z,0
2018-01-26T03:51:27.622Z,0
2018-01-26T03:52:36.304Z,0
2018-01-26T03:53:44.983Z,0
2018-01-26T03:54:54.710Z,0
2018-01-26T03:56:04.222Z,0
2018-01-26T03:57:13.691Z,0
2018-01-26T03:58:22.641Z,0
2018-01-26T03:59:32.108Z,0
2018-01-26T04:00:41.566Z,0
2018-01-26T04:01:50.250Z,0
2018-01-26T04:02:59.454Z,0
2018-01-26T04:04:08.458Z,0
2018-01-26T04:05:18.463Z,0
2018-01-26T04:06:27.940Z,0
2018-01-26T04:07:36.639Z,0
2018-01-26T04:08:45.349Z,0
2018-01-26T04:09:54.033Z,0
2018-01-26T04:11:02.717Z,0
2018-01-26T04:12:11.666Z,0
2018-01-26T04:13:20.869Z,0
2018-01-26T04:14:29.580Z,0
2018-01-26T04:15:39.039Z,0
2018-01-26T04:16:47.991Z,0
2018-01-26T04:17:57.199Z,0
2018-01-26T04:19:06.411Z,0
2018-01-26T04:20:15.112Z,0
2018-01-26T04:21:24.130Z,0
2018-01-26T04:22:33.076Z,0
2018-01-26T04:23:41.783Z,0
2018-01-26T04:24:50.716Z,0
2018-01-26T04:25:59.409Z,0
2018-01-26T04:27:08.875Z,0
2018-01-26T04:28:17.831Z,0
2018-01-26T04:29:26.503Z,0
2018-01-26T04:30:35.459Z,0
2018-01-26T04:31:44.668Z,0
2018-01-26T04:32:53.631Z,0
2018-01-26T04:34:02.596Z,0
2018-01-26T04:35:12.063Z,0
2018-01-26T04:36:20.767Z,0
2018-01-26T04:37:29.702Z,0
2018-01-26T04:38:38.641Z,0
2018-01-26T04:39:47.665Z,0
2018-01-26T04:40:56.638Z,0
2018-01-26T04:42:05.868Z,0
2018-01-26T04:43:14.802Z,0
2018-01-26T04:44:24.552Z,0
2018-01-26T04:45:33.513Z,0
2018-01-26T04:46:42.479Z,0
2018-01-26T04:47:51.428Z,0
2018-01-26T04:49:00.646Z,0
2018-01-26T04:50:09.328Z,0
2018-01-26T04:51:18.273Z,0
2018-01-26T04:52:27.229Z,0
2018-01-26T04:53:36.416Z,0
2018-01-26T04:54:45.365Z,0
2018-01-26T04:55:54.330Z,0
2018-01-26T04:57:03.526Z,0
2018-01-26T04:58:12.465Z,0
2018-01-26T04:59:21.690Z,0
2018-01-26T05:00:30.905Z,0
2018-01-26T05:01:40.131Z,0
2018-01-26T05:02:49.331Z,0
2018-01-26T05:03:58.545Z,0
2018-01-26T05:05:07.759Z,0
2018-01-26T05:06:17.220Z,0
2018-01-26T05:07:25.941Z,0
2018-01-26T05:08:34.880Z,0
2018-01-26T05:09:43.584Z,0
2018-01-26T05:10:52.271Z,0
2018-01-26T05:12:01.744Z,0
2018-01-26T05:13:10.720Z,0
2018-01-26T05:14:19.926Z,0
2018-01-26T05:15:29.147Z,0
2018-01-26T05:16:38.351Z,0
2018-01-26T05:17:47.294Z,0
2018-01-26T05:18:56.078Z,0
2018-01-26T05:20:04.777Z,0
2018-01-26T05:21:13.458Z,0
2018-01-26T05:22:22.405Z,0
2018-01-26T05:23:31.622Z,0
2018-01-26T05:24:40.819Z,0
2018-01-26T05:25:50.058Z,0
2018-01-26T05:26:59.024Z,0
2018-01-26T05:28:07.996Z,0
2018-01-26T05:29:16.975Z,0
2018-01-26T05:30:25.908Z,0
2018-01-26T05:31:34.862Z,0
2018-01-26T05:32:44.103Z,0
2018-01-26T05:33:53.577Z,0
2018-01-26T05:35:02.520Z,0
2018-01-26T05:36:11.765Z,0
2018-01-26T05:37:20.720Z,0
2018-01-26T05:38:29.917Z,0
2018-01-26T05:39:38.605Z,0
2018-01-26T05:40:47.302Z,0
2018-01-26T05:41:56.787Z,0
2018-01-26T05:43:05.762Z,0
2018-01-26T05:44:14.444Z,0
2018-01-26T05:45:23.930Z,0
2018-01-26T05:46:33.181Z,0
2018-01-26T05:47:41.875Z,0
2018-01-26T05:48:51.356Z,0
2018-01-26T05:50:00.326Z,0
2018-01-26T05:51:09.035Z,0
2018-01-26T05:52:17.724Z,0
2018-01-26T05:53:26.422Z,0
2018-01-26T05:54:35.371Z,0
2018-01-26T05:55:44.083Z,0
2018-01-26T05:56:53.030Z,0
2018-01-26T05:58:02.250Z,0
2018-01-26T05:59:11.474Z,0
2018-01-26T06:00:20.422Z,0
2018-01-26T06:01:29.133Z,0
2018-01-26T06:02:37.833Z,0
2018-01-26T06:03:46.788Z,0
2018-01-26T06:04:56.016Z,0
2018-01-26T06:06:04.690Z,0
2018-01-26T06:07:14.164Z,0
2018-01-26T06:08:23.110Z,0
2018-01-26T06:09:32.304Z,0
2018-01-26T06:10:41.277Z,0
2018-01-26T06:11:50.266Z,0
2018-01-26T06:12:58.904Z,0
2018-01-26T06:14:07.865Z,0
2018-01-26T06:15:17.087Z,0
2018-01-26T06:16:26.049Z,0
2018-01-26T06:17:34.792Z,0
2018-01-26T06:18:44.007Z,0
2018-01-26T06:19:52.977Z,0
2018-01-26T06:21:01.713Z,0
2018-01-26T06:22:10.930Z,0
2018-01-26T06:23:19.883Z,0
2018-01-26T06:24:28.591Z,0
2018-01-26T06:25:37.274Z,0
2018-01-26T06:26:46.526Z,0
2018-01-26T06:27:55.230Z,0
2018-01-26T06:29:04.185Z,0
2018-01-26T06:30:13.149Z,0
2018-01-26T06:31:22.625Z,0
2018-01-26T06:32:31.581Z,0
2018-01-26T06:33:40.836Z,0
2018-01-26T06:34:50.321Z,0
2018-01-26T06:35:59.003Z,0
2018-01-26T06:37:08.479Z,0
2018-01-26T06:38:17.686Z,0
2018-01-26T06:39:26.368Z,0
2018-01-26T06:40:35.055Z,0
2018-01-26T06:41:44.317Z,0
2018-01-26T06:42:53.287Z,0
2018-01-26T06:44:01.977Z,0
2018-01-26T06:45:11.179Z,0
2018-01-26T06:46:19.882Z,0
2018-01-26T06:47:28.857Z,0
2018-01-26T06:48:37.824Z,0
2018-01-26T06:49:47.082Z,0
2018-01-26T06:50:56.034Z,0
2018-01-26T06:52:04.997Z,0
2018-01-26T06:53:13.999Z,0
2018-01-26T06:54:22.936Z,0
2018-01-26T06:55:32.153Z,0
2018-01-26T06:56:41.097Z,0
2018-01-26T06:57:50.080Z,0
2018-01-26T06:58:59.546Z,0
2018-01-26T07:00:08.507Z,0
2018-01-26T07:01:17.445Z,0
2018-01-26T07:02:26.438Z,0
2018-01-26T07:03:35.380Z,0
2018-01-26T07:04:44.064Z,0
2018-01-26T07:05:53.048Z,0
2018-01-26T07:07:02.057Z,0
2018-01-26T07:08:11.279Z,0
2018-01-26T07:09:21.013Z,0
2018-01-26T07:10:29.704Z,0
2018-01-26T07:11:38.685Z,0
2018-01-26T07:12:48.158Z,0
2018-01-26T07:13:57.110Z,0
2018-01-26T07:15:06.316Z,0
2018-01-26T07:16:15.009Z,0
2018-01-26T07:17:24.213Z,0
2018-01-26T07:18:33.149Z,0
2018-01-26T07:19:42.092Z,0
2018-01-26T07:20:51.056Z,0
2018-01-26T07:22:12.753Z,0
2018-01-26T07:23:21.707Z,0
2018-01-26T07:24:30.920Z,0
2018-01-26T07:25:39.864Z,0
2018-01-26T07:26:49.111Z,0
2018-01-26T07:27:58.062Z,0
2018-01-26T07:29:07.099Z,0
2018-01-26T07:30:16.041Z,0
2018-01-26T07:31:25.282Z,0
2018-01-26T07:32:34.532Z,0
2018-01-26T07:33:43.728Z,0
2018-01-26T07:34:52.688Z,0
2018-01-26T07:36:01.937Z,0
2018-01-26T07:37:10.634Z,0
2018-01-26T07:38:19.587Z,0
2018-01-26T07:39:29.058Z,0
2018-01-26T07:40:38.267Z,0
2018-01-26T07:41:47.491Z,0
2018-01-26T07:42:56.964Z,0
2018-01-26T07:44:06.209Z,0
2018-01-26T07:45:15.157Z,0
2018-01-26T07:46:24.108Z,0
2018-01-26T07:47:33.063Z,0
2018-01-26T07:48:42.061Z,0
2018-01-26T07:49:50.750Z,0
2018-01-26T07:50:59.721Z,0
2018-01-26T07:52:08.413Z,0
2018-01-26T07:53:17.113Z,0
2018-01-26T07:54:25.820Z,0
2018-01-26T07:55:35.548Z,0
2018-01-26T07:56:45.272Z,0
2018-01-26T07:57:54.485Z,0
2018-01-26T07:59:03.448Z,0
2018-01-26T08:00:13.200Z,0
2018-01-26T08:01:22.155Z,5
2018-01-26T08:02:31.118Z,5
2018-01-26T08:03:40.601Z,5
2018-01-26T08:04:49.557Z,5
2018-01-26T08:05:58.773Z,5
2018-01-26T08:07:07.739Z,5
2018-01-26T08:08:16.698Z,5
2018-01-26T08:09:25.671Z,5
2018-01-26T08:10:34.608Z,5
2018-01-26T08:11:43.604Z,5
2018-01-26T08:12:53.077Z,5
2018-01-26T08:14:01.827Z,5
2018-01-26T08:15:11.117Z,5
2018-01-26T08:16:19.797Z,10
2018-01-26T08:17:28.754Z,10
2018-01-26T08:18:37.441Z,10
2018-01-26T08:19:46.388Z,10
2018-01-26T08:20:55.341Z,10
2018-01-26T08:22:04.809Z,10
2018-01-26T08:23:13.765Z,15
2018-01-26T08:24:22.722Z,15
2018-01-26T08:25:31.680Z,15
2018-01-26T08:26:40.371Z,15
2018-01-26T08:27:49.085Z,15
2018-01-26T08:28:58.041Z,15
2018-01-26T08:30:07.011Z,15
2018-01-26T08:31:16.244Z,15
2018-01-26T08:32:25.471Z,15
2018-01-26T08:33:34.168Z,15
2018-01-26T08:34:43.643Z,10
2018-01-26T08:35:52.338Z,10
2018-01-26T08:37:01.837Z,15
2018-01-26T08:38:10.537Z,15
2018-01-26T08:39:19.229Z,15
2018-01-26T08:40:28.173Z,15
2018-01-26T08:41:36.865Z,20
2018-01-26T08:42:45.567Z,20
2018-01-26T08:43:54.513Z,20
2018-01-26T08:45:03.725Z,20
2018-01-26T08:46:12.969Z,15
2018-01-26T08:47:22.449Z,20
2018-01-26T08:48:31.668Z,20
2018-01-26T08:49:40.363Z,20
2018-01-26T08:50:50.141Z,20
2018-01-26T08:51:59.366Z,20
2018-01-26T08:53:08.596Z,20
2018-01-26T08:54:17.573Z,20
2018-01-26T08:55:26.566Z,20
2018-01-26T08:56:35.256Z,20
2018-01-26T08:57:44.269Z,20
2018-01-26T08:58:52.963Z,20
2018-01-26T09:00:02.692Z,20
2018-01-26T09:01:11.984Z,20
2018-01-26T09:02:20.974Z,20
2018-01-26T09:03:29.938Z,20
2018-01-26T09:04:38.886Z,20
2018-01-26T09:05:48.360Z,25
2018-01-26T09:06:57.579Z,25
2018-01-26T09:08:06.783Z,20
2018-01-26T09:09:15.546Z,20
2018-01-26T09:10:24.240Z,20
2018-01-26T09:11:32.924Z,20
2018-01-26T09:12:41.691Z,20
2018-01-26T09:13:50.902Z,20
2018-01-26T09:15:00.138Z,15
2018-01-26T09:16:09.085Z,15
2018-01-26T09:17:17.772Z,15
2018-01-26T09:18:27.010Z,15
2018-01-26T09:19:36.227Z,20
2018-01-26T09:20:45.431Z,20
2018-01-26T09:21:54.646Z,20
2018-01-26T09:23:03.664Z,15
2018-01-26T09:24:13.137Z,15
2018-01-26T09:25:22.089Z,15
2018-01-26T09:26:31.055Z,15
2018-01-26T09:27:40.018Z,20
2018-01-26T09:28:48.982Z,20
2018-01-26T09:29:57.662Z,20
2018-01-26T09:31:07.134Z,20
2018-01-26T09:32:16.347Z,20
2018-01-26T09:33:25.386Z,20
2018-01-26T09:34:34.602Z,20
2018-01-26T09:35:43.816Z,20
2018-01-26T09:36:53.080Z,20
2018-01-26T09:38:02.520Z,20
2018-01-26T09:39:11.997Z,20
2018-01-26T09:40:21.480Z,20
2018-01-26T09:41:30.699Z,20
2018-01-26T09:42:40.177Z,20
2018-01-26T09:43:49.392Z,20
2018-01-26T09:44:58.905Z,20
2018-01-26T09:46:07.568Z,20
2018-01-26T09:47:16.277Z,25
2018-01-26T09:48:25.499Z,25
2018-01-26T09:49:34.194Z,25
2018-01-26T09:50:43.477Z,25
2018-01-26T09:51:52.122Z,25
2018-01-26T09:53:01.602Z,25
2018-01-26T09:54:10.555Z,20
2018-01-26T09:55:19.504Z,20
2018-01-26T09:56:28.455Z,20
2018-01-26T09:57:37.681Z,20
2018-01-26T09:58:46.623Z,20
2018-01-26T09:59:55.588Z,20
2018-01-26T10:01:04.559Z,20
2018-01-26T10:02:13.519Z,20
2018-01-26T10:03:22.727Z,20
2018-01-26T10:04:31.689Z,20
2018-01-26T10:05:41.166Z,20
2018-01-26T10:06:50.381Z,20
2018-01-26T10:07:59.337Z,20
2018-01-26T10:09:08.035Z,25
2018-01-26T10:10:16.749Z,25
2018-01-26T10:11:25.723Z,25
2018-01-26T10:12:34.935Z,25
2018-01-26T10:13:44.477Z,30
2018-01-26T10:14:53.146Z,30
2018-01-26T10:16:01.859Z,25
2018-01-26T10:17:11.079Z,25
2018-01-26T10:18:20.293Z,25
2018-01-26T10:19:29.526Z,30
2018-01-26T10:20:39.020Z,30
2018-01-26T10:21:47.708Z,25
2018-01-26T10:22:56.682Z,25
2018-01-26T10:24:05.933Z,25
2018-01-26T10:25:14.895Z,25
2018-01-26T10:26:24.096Z,30
2018-01-26T10:27:33.332Z,30
2018-01-26T10:28:42.021Z,30
2018-01-26T10:29:50.733Z,30
2018-01-26T10:31:00.198Z,30
2018-01-26T10:32:08.885Z,30
2018-01-26T10:33:17.847Z,30
2018-01-26T10:34:27.078Z,30
2018-01-26T10:35:36.043Z,30
2018-01-26T10:36:44.731Z,30
2018-01-26T10:37:53.972Z,30
2018-01-26T10:39:03.195Z,30
2018-01-26T10:40:12.156Z,25
2018-01-26T10:41:20.861Z,25
2018-01-26T10:42:30.367Z,25
2018-01-26T10:43:39.865Z,25
2018-01-26T10:44:48.815Z,25
2018-01-26T10:45:57.518Z,30
2018-01-26T10:47:06.479Z,30
2018-01-26T10:48:15.689Z,30
2018-01-26T10:49:24.646Z,30
2018-01-26T10:50:34.128Z,30
2018-01-26T10:51:43.064Z,30
2018-01-26T10:52:52.279Z,30
2018-01-26T10:54:01.230Z,30
2018-01-26T10:55:10.188Z,30
2018-01-26T10:56:19.918Z,30
2018-01-26T10:57:28.607Z,25
2018-01-26T10:58:37.811Z,25
2018-01-26T10:59:46.768Z,25
2018-01-26T11:00:55.718Z,25
2018-01-26T11:02:04.688Z,25
2018-01-26T11:03:13.712Z,25
2018-01-26T11:04:23.176Z,25
2018-01-26T11:05:32.401Z,25
2018-01-26T11:06:41.619Z,25
2018-01-26T11:07:50.307Z,25
2018-01-26T11:08:59.270Z,25
2018-01-26T11:10:08.200Z,20
2018-01-26T11:11:17.158Z,25
2018-01-26T11:12:26.379Z,25
2018-01-26T11:13:35.169Z,25
2018-01-26T11:14:43.877Z,25
2018-01-26T11:15:52.869Z,25
2018-01-26T11:17:02.367Z,25
2018-01-26T11:18:11.604Z,25
2018-01-26T11:19:20.822Z,25
2018-01-26T11:20:30.041Z,25
2018-01-26T11:21:39.062Z,25
2018-01-26T11:22:47.747Z,25
2018-01-26T11:23:56.485Z,25
2018-01-26T11:25:05.458Z,25
2018-01-26T11:26:14.424Z,25
2018-01-26T11:27:23.901Z,25
2018-01-26T11:28:32.865Z,25
2018-01-26T11:29:42.091Z,25
2018-01-26T11:30:51.576Z,25
2018-01-26T11:32:01.075Z,25
2018-01-26T11:33:10.034Z,25
2018-01-26T11:34:19.004Z,25
2018-01-26T11:35:27.707Z,30
2018-01-26T11:36:36.938Z,30
2018-01-26T11:37:46.414Z,30
2018-01-26T11:38:55.637Z,30
2018-01-26T11:40:04.357Z,30
2018-01-26T11:41:13.073Z,30
2018-01-26T11:42:22.329Z,30
2018-01-26T11:43:31.039Z,30
2018-01-26T11:44:40.273Z,30
2018-01-26T11:45:49.238Z,30
2018-01-26T11:46:58.446Z,30
2018-01-26T11:48:07.398Z,25
2018-01-26T11:49:16.630Z,25
2018-01-26T11:50:25.864Z,25
2018-01-26T11:51:35.339Z,25
2018-01-26T11:52:44.802Z,20
2018-01-26T11:53:54.020Z,20
2018-01-26T11:55:02.965Z,20
2018-01-26T11:56:12.422Z,20
2018-01-26T11:57:21.373Z,20
2018-01-26T11:58:30.077Z,25
2018-01-26T11:59:39.293Z,25
2018-01-26T12:00:48.246Z,25
2018-01-26T12:01:57.458Z,25
2018-01-26T12:03:06.407Z,25
2018-01-26T12:04:15.873Z,25
2018-01-26T12:05:25.339Z,25
2018-01-26T12:06:34.560Z,25
2018-01-26T12:07:43.783Z,25
2018-01-26T12:08:52.730Z,25
2018-01-26T12:10:01.970Z,25
2018-01-26T12:11:10.650Z,25
2018-01-26T12:12:19.641Z,25
2018-01-26T12:13:28.540Z,25
2018-01-26T12:14:37.742Z,25
2018-01-26T12:15:46.685Z,25
2018-01-26T12:16:55.645Z,30
2018-01-26T12:18:04.598Z,30
2018-01-26T12:19:13.291Z,30
2018-01-26T12:20:22.763Z,30
2018-01-26T12:21:31.460Z,35
2018-01-26T12:22:40.685Z,35
2018-01-26T12:23:49.652Z,35
2018-01-26T12:24:58.603Z,35
2018-01-26T12:26:07.301Z,35
2018-01-26T12:27:16.250Z,35
2018-01-26T12:28:25.748Z,35
2018-01-26T12:29:34.962Z,30
2018-01-26T12:30:43.914Z,30
2018-01-26T12:31:52.597Z,35
2018-01-26T12:33:02.087Z,30
2018-01-26T12:34:11.047Z,30
2018-01-26T12:35:20.511Z,30
2018-01-26T12:36:29.456Z,30
2018-01-26T12:37:38.665Z,30
2018-01-26T12:38:48.153Z,30
2018-01-26T12:39:57.099Z,25
2018-01-26T12:41:06.047Z,25
2018-01-26T12:42:15.015Z,25
2018-01-26T12:43:23.971Z,25
2018-01-26T12:44:33.180Z,25
2018-01-26T12:45:42.136Z,25
2018-01-26T12:46:51.726Z,25
2018-01-26T12:48:00.420Z,25
2018-01-26T12:49:09.646Z,25
2018-01-26T12:50:18.349Z,25
2018-01-26T12:51:27.291Z,25
2018-01-26T12:52:36.239Z,25
2018-01-26T12:53:44.942Z,25
2018-01-26T12:54:53.630Z,25
2018-01-26T12:56:02.313Z,25
2018-01-26T12:57:11.522Z,25
2018-01-26T12:58:20.730Z,25
2018-01-26T12:59:29.429Z,25
2018-01-26T13:00:38.129Z,25
2018-01-26T13:01:47.333Z,25
2018-01-26T13:02:56.815Z,25
2018-01-26T13:04:05.507Z,20
2018-01-26T13:05:14.224Z,20
2018-01-26T13:06:23.167Z,20
2018-01-26T13:07:32.114Z,20
2018-01-26T13:08:41.082Z,20
2018-01-26T13:09:49.773Z,20
2018-01-26T13:10:59.006Z,20
2018-01-26T13:12:08.237Z,20
2018-01-26T13:13:16.969Z,20
2018-01-26T13:14:26.177Z,20
2018-01-26T13:15:35.119Z,20
2018-01-26T13:16:44.334Z,25
2018-01-26T13:17:53.556Z,30
2018-01-26T13:19:02.266Z,30
2018-01-26T13:20:11.560Z,30
2018-01-26T13:21:20.768Z,30
2018-01-26T13:22:29.472Z,30
2018-01-26T13:23:38.426Z,30
2018-01-26T13:24:47.634Z,30
2018-01-26T13:25:56.333Z,25
2018-01-26T13:27:05.043Z,25
2018-01-26T13:28:14.001Z,25
2018-01-26T13:29:22.955Z,25
2018-01-26T13:30:31.635Z,25
2018-01-26T13:31:40.322Z,25
2018-01-26T13:32:49.306Z,25
2018-01-26T13:33:59.041Z,25
2018-01-26T13:35:08.252Z,25
2018-01-26T13:36:17.931Z,20
2018-01-26T13:37:26.884Z,20
2018-01-26T13:38:36.104Z,20
2018-01-26T13:39:45.689Z,20
2018-01-26T13:40:54.611Z,20
2018-01-26T13:42:03.828Z,20
2018-01-26T13:43:13.313Z,20
2018-01-26T13:44:22.043Z,20
2018-01-26T13:45:31.251Z,15
2018-01-26T13:46:39.956Z,15
2018-01-26T13:47:48.913Z,15
2018-01-26T13:48:57.861Z,15
2018-01-26T13:50:07.367Z,20
2018-01-26T13:51:16.855Z,20
2018-01-26T13:52:26.069Z,20
2018-01-26T13:53:35.293Z,20
2018-01-26T13:54:44.001Z,20
2018-01-26T13:55:53.005Z,20
2018-01-26T13:57:02.761Z,20
2018-01-26T13:58:11.719Z,20
2018-01-26T13:59:20.956Z,20
2018-01-26T14:00:30.891Z,20
2018-01-26T14:01:40.102Z,20
2018-01-26T14:02:49.326Z,20
2018-01-26T14:03:58.553Z,20
2018-01-26T14:05:07.525Z,15
2018-01-26T14:06:16.487Z,15
2018-01-26T14:07:25.520Z,15
2018-01-26T14:08:34.497Z,15
2018-01-26T14:09:43.458Z,15
2018-01-26T14:10:52.473Z,15
2018-01-26T14:12:01.413Z,15
2018-01-26T14:13:10.371Z,15
2018-01-26T14:14:19.339Z,15
2018-01-26T14:15:28.298Z,15
2018-01-26T14:16:36.994Z,15
2018-01-26T14:17:45.965Z,15
2018-01-26T14:18:54.721Z,15
2018-01-26T14:20:03.960Z,15
2018-01-26T14:21:12.918Z,15
2018-01-26T14:22:21.683Z,15
2018-01-26T14:23:30.660Z,15
2018-01-26T14:24:39.624Z,15
2018-01-26T14:25:48.327Z,15
2018-01-26T14:26:57.294Z,15
2018-01-26T14:28:05.992Z,15
2018-01-26T14:29:14.707Z,15
2018-01-26T14:30:23.410Z,15
2018-01-26T14:31:32.619Z,15
2018-01-26T14:32:41.378Z,15
2018-01-26T14:33:50.595Z,15
2018-01-26T14:34:59.278Z,15
2018-01-26T14:36:08.503Z,15
2018-01-26T14:37:17.189Z,15
2018-01-26T14:38:26.155Z,15
2018-01-26T14:39:35.365Z,15
2018-01-26T14:40:44.073Z,15
2018-01-26T14:41:52.759Z,10
2018-01-26T14:43:01.705Z,10
2018-01-26T14:44:10.386Z,10
2018-01-26T14:45:19.087Z,10
2018-01-26T14:46:28.063Z,10
2018-01-26T14:47:37.011Z,10
2018-01-26T14:48:45.972Z,10
2018-01-26T14:49:54.746Z,10
2018-01-26T14:51:03.455Z,10
2018-01-26T14:52:12.170Z,10
2018-01-26T14:53:21.395Z,10
2018-01-26T14:54:30.642Z,10
2018-01-26T14:55:39.327Z,10
2018-01-26T14:56:48.086Z,10
2018-01-26T14:57:57.064Z,10
2018-01-26T14:59:05.754Z,10
2018-01-26T15:00:14.454Z,10
2018-01-26T15:01:23.164Z,10
2018-01-26T15:02:32.109Z,10
2018-01-26T15:03:41.082Z,10
2018-01-26T15:04:50.292Z,10
2018-01-26T15:05:59.245Z,10
2018-01-26T15:07:08.721Z,10
2018-01-26T15:08:17.416Z,5
2018-01-26T15:09:26.630Z,5
2018-01-26T15:10:35.847Z,5
2018-01-26T15:11:44.802Z,5
2018-01-26T15:12:54.034Z,5
2018-01-26T15:14:03.004Z,5
2018-01-26T15:15:12.469Z,5
2018-01-26T15:16:21.149Z,5
2018-01-26T15:17:30.623Z,5
2018-01-26T15:18:39.609Z,5
2018-01-26T15:19:48.586Z,5
2018-01-26T15:20:57.543Z,5
2018-01-26T15:22:06.532Z,5
2018-01-26T15:23:15.253Z,5
2018-01-26T15:24:24.204Z,5
2018-01-26T15:25:32.897Z,5
2018-01-26T15:26:41.854Z,5
2018-01-26T15:27:50.825Z,5
2018-01-26T15:28:59.529Z,5
2018-01-26T15:30:08.475Z,5
2018-01-26T15:31:17.184Z,5
2018-01-26T15:32:26.140Z,5
2018-01-26T15:33:35.356Z,5
2018-01-26T15:34:44.060Z,5
2018-01-26T15:35:53.296Z,5
2018-01-26T15:37:02.790Z,5
2018-01-26T15:38:11.742Z,5
2018-01-26T15:39:20.705Z,5
2018-01-26T15:40:30.169Z,5
2018-01-26T15:41:39.121Z,5
2018-01-26T15:42:48.082Z,0
2018-01-26T15:43:57.053Z,0
2018-01-26T15:45:06.260Z,0
2018-01-26T15:46:15.261Z,0
2018-01-26T15:47:24.259Z,0
2018-01-26T15:48:33.478Z,0
2018-01-26T15:49:42.158Z,0
2018-01-26T15:50:51.361Z,0
2018-01-26T15:52:00.303Z,0
2018-01-26T15:53:09.520Z,0
2018-01-26T15:54:18.775Z,0
2018-01-26T15:55:27.765Z,0
2018-01-26T15:56:36.749Z,0
2018-01-26T15:57:45.967Z,0
2018-01-26T15:58:54.754Z,0
2018-01-26T16:00:04.249Z,0
2018-01-26T16:01:13.471Z,0
2018-01-26T16:02:22.438Z,0
2018-01-26T16:03:31.665Z,0
2018-01-26T16:04:40.638Z,0
2018-01-26T16:05:49.577Z,0
2018-01-26T16:06:58.803Z,0
2018-01-26T16:08:07.504Z,0
2018-01-26T16:09:16.459Z,0
2018-01-26T16:10:25.169Z,0
2018-01-26T16:11:34.375Z,0
2018-01-26T16:12:43.603Z,0
2018-01-26T16:13:52.833Z,0
2018-01-26T16:15:01.782Z,0
2018-01-26T16:16:10.493Z,0
2018-01-26T16:17:19.470Z,0
2018-01-26T16:18:28.689Z,0
2018-01-26T16:19:37.636Z,0
2018-01-26T16:20:46.593Z,0
2018-01-26T16:21:55.803Z,0
2018-01-26T16:23:05.031Z,0
2018-01-26T16:24:14.271Z,0
2018-01-26T16:25:22.967Z,0
2018-01-26T16:26:32.211Z,0
2018-01-26T16:27:40.917Z,0
2018-01-26T16:28:50.160Z,0
2018-01-26T16:29:58.927Z,0
2018-01-26T16:31:07.889Z,0
2018-01-26T16:32:16.967Z,0
2018-01-26T16:33:26.746Z,0
2018-01-26T16:34:35.826Z,0
2018-01-26T16:35:44.906Z,0
2018-01-26T16:36:54.418Z,0
2018-01-26T16:38:03.397Z,0
2018-01-26T16:39:12.166Z,0
2018-01-26T16:40:21.432Z,0
2018-01-26T16:41:31.066Z,0
2018-01-26T16:42:39.796Z,0
2018-01-26T16:43:49.098Z,0
2018-01-26T16:44:58.113Z,0
2018-01-26T16:46:07.453Z,0